sensor_id;sensor_type;location;lat;lon;timestamp;temperature;humidity
14053;DHT22;7101;51.600;7.310;2022-08-21T00:00:06;16.80;99.90
14053;DHT22;7101;51.600;7.310;2022-08-21T00:02:33;16.80;99.90
14053;DHT22;7101;51.600;7.310;2022-08-21T00:05:00;16.80;99.90
14053;DHT22;7101;51.600;7.310;2022-08-21T00:07:28;16.80;99.90
14053;DHT22;7101;51.600;7.310;2022-08-21T00:09:56;16.80;99.90
14053;DHT22;7101;51.600;7.310;2022-08-21T00:12:23;16.80;99.90
14053;DHT22;7101;51.600;7.310;2022-08-21T00:14:51;16.80;99.90
14053;DHT22;7101;51.600;7.310;2022-08-21T00:17:17;16.80;99.90
14053;DHT22;7101;51.600;7.310;2022-08-21T00:19:44;16.80;99.90
14053;DHT22;7101;51.600;7.310;2022-08-21T00:22:11;16.70;99.90
14053;DHT22;7101;51.600;7.310;2022-08-21T00:24:38;16.80;99.90
14053;DHT22;7101;51.600;7.310;2022-08-21T00:27:06;16.80;99.90
14053;DHT22;7101;51.600;7.310;2022-08-21T00:29:33;16.70;99.90
14053;DHT22;7101;51.600;7.310;2022-08-21T00:32:00;16.70;99.90
14053;DHT22;7101;51.600;7.310;2022-08-21T00:34:26;16.60;99.90
14053;DHT22;7101;51.600;7.310;2022-08-21T00:36:53;16.60;99.90
14053;DHT22;7101;51.600;7.310;2022-08-21T00:39:20;16.60;99.90
14053;DHT22;7101;51.600;7.310;2022-08-21T00:41:47;16.60;99.90
14053;DHT22;7101;51.600;7.310;2022-08-21T00:44:15;16.50;99.90
14053;DHT22;7101;51.600;7.310;2022-08-21T00:46:43;16.50;99.90
14053;DHT22;7101;51.600;7.310;2022-08-21T00:49:11;16.40;99.90
14053;DHT22;7101;51.600;7.310;2022-08-21T00:51:42;16.40;99.90
14053;DHT22;7101;51.600;7.310;2022-08-21T00:54:11;16.40;99.90
14053;DHT22;7101;51.600;7.310;2022-08-21T00:56:39;16.30;99.90
14053;DHT22;7101;51.600;7.310;2022-08-21T00:59:06;16.30;99.90
14053;DHT22;7101;51.600;7.310;2022-08-21T01:01:35;16.30;99.90
14053;DHT22;7101;51.600;7.310;2022-08-21T01:04:03;16.30;99.90
14053;DHT22;7101;51.600;7.310;2022-08-21T01:06:29;16.30;99.90
14053;DHT22;7101;51.600;7.310;2022-08-21T01:08:57;16.40;99.90
14053;DHT22;7101;51.600;7.310;2022-08-21T01:11:24;16.50;99.90
14053;DHT22;7101;51.600;7.310;2022-08-21T01:13:51;16.60;99.90
14053;DHT22;7101;51.600;7.310;2022-08-21T01:16:20;16.70;99.90
14053;DHT22;7101;51.600;7.310;2022-08-21T01:18:49;16.70;99.90
14053;DHT22;7101;51.600;7.310;2022-08-21T01:21:20;16.80;99.90
14053;DHT22;7101;51.600;7.310;2022-08-21T01:23:49;16.80;99.90
14053;DHT22;7101;51.600;7.310;2022-08-21T01:26:19;16.80;99.90
14053;DHT22;7101;51.600;7.310;2022-08-21T01:28:50;16.70;99.90
14053;DHT22;7101;51.600;7.310;2022-08-21T01:31:20;16.60;99.90
14053;DHT22;7101;51.600;7.310;2022-08-21T01:33:48;16.70;99.90
14053;DHT22;7101;51.600;7.310;2022-08-21T01:36:14;16.70;99.90
14053;DHT22;7101;51.600;7.310;2022-08-21T01:38:43;16.70;99.90
14053;DHT22;7101;51.600;7.310;2022-08-21T01:41:10;16.60;99.90
14053;DHT22;7101;51.600;7.310;2022-08-21T01:43:37;16.50;99.90
14053;DHT22;7101;51.600;7.310;2022-08-21T01:46:04;16.40;99.90
14053;DHT22;7101;51.600;7.310;2022-08-21T01:48:31;16.30;99.90
14053;DHT22;7101;51.600;7.310;2022-08-21T01:50:58;16.30;99.90
14053;DHT22;7101;51.600;7.310;2022-08-21T01:53:25;16.10;99.90
14053;DHT22;7101;51.600;7.310;2022-08-21T01:55:53;16.00;99.90
14053;DHT22;7101;51.600;7.310;2022-08-21T01:58:20;15.80;99.90
14053;DHT22;7101;51.600;7.310;2022-08-21T02:00:46;15.80;99.90
14053;DHT22;7101;51.600;7.310;2022-08-21T02:03:14;15.70;99.90
14053;DHT22;7101;51.600;7.310;2022-08-21T02:05:41;15.50;99.90
14053;DHT22;7101;51.600;7.310;2022-08-21T02:08:08;15.50;99.90
14053;DHT22;7101;51.600;7.310;2022-08-21T02:10:35;15.40;99.90
14053;DHT22;7101;51.600;7.310;2022-08-21T02:13:03;15.40;99.90
14053;DHT22;7101;51.600;7.310;2022-08-21T02:15:33;15.30;99.90
14053;DHT22;7101;51.600;7.310;2022-08-21T02:18:02;15.20;99.90
14053;DHT22;7101;51.600;7.310;2022-08-21T02:20:34;15.20;99.90
14053;DHT22;7101;51.600;7.310;2022-08-21T02:23:02;15.20;99.90
14053;DHT22;7101;51.600;7.310;2022-08-21T02:25:32;15.10;99.90
14053;DHT22;7101;51.600;7.310;2022-08-21T02:28:03;15.10;99.90
14053;DHT22;7101;51.600;7.310;2022-08-21T02:30:33;15.00;99.90
14053;DHT22;7101;51.600;7.310;2022-08-21T02:33:01;14.90;99.90
14053;DHT22;7101;51.600;7.310;2022-08-21T02:35:28;14.90;99.90
14053;DHT22;7101;51.600;7.310;2022-08-21T02:37:56;14.90;99.90
14053;DHT22;7101;51.600;7.310;2022-08-21T02:40:26;14.80;99.90
14053;DHT22;7101;51.600;7.310;2022-08-21T02:42:53;14.80;99.90
14053;DHT22;7101;51.600;7.310;2022-08-21T02:45:22;14.70;99.90
14053;DHT22;7101;51.600;7.310;2022-08-21T02:47:50;14.70;99.90
14053;DHT22;7101;51.600;7.310;2022-08-21T02:50:19;14.70;99.90
14053;DHT22;7101;51.600;7.310;2022-08-21T02:52:46;14.60;99.90
14053;DHT22;7101;51.600;7.310;2022-08-21T02:55:13;14.60;99.90
14053;DHT22;7101;51.600;7.310;2022-08-21T02:57:40;14.60;99.90
14053;DHT22;7101;51.600;7.310;2022-08-21T03:00:09;14.60;99.90
14053;DHT22;7101;51.600;7.310;2022-08-21T03:02:38;14.50;99.90
14053;DHT22;7101;51.600;7.310;2022-08-21T03:05:06;14.40;99.90
14053;DHT22;7101;51.600;7.310;2022-08-21T03:07:33;14.40;99.90
14053;DHT22;7101;51.600;7.310;2022-08-21T03:10:01;14.40;99.90
14053;DHT22;7101;51.600;7.310;2022-08-21T03:12:28;14.30;99.90
14053;DHT22;7101;51.600;7.310;2022-08-21T03:14:55;14.30;99.90
14053;DHT22;7101;51.600;7.310;2022-08-21T03:17:22;14.30;99.90
14053;DHT22;7101;51.600;7.310;2022-08-21T03:19:50;14.20;99.90
14053;DHT22;7101;51.600;7.310;2022-08-21T03:22:17;14.30;99.90
14053;DHT22;7101;51.600;7.310;2022-08-21T03:24:44;14.30;99.90
14053;DHT22;7101;51.600;7.310;2022-08-21T03:27:11;14.20;99.90
14053;DHT22;7101;51.600;7.310;2022-08-21T03:29:39;14.20;99.90
14053;DHT22;7101;51.600;7.310;2022-08-21T03:32:06;14.20;99.90
14053;DHT22;7101;51.600;7.310;2022-08-21T03:34:34;14.20;99.90
14053;DHT22;7101;51.600;7.310;2022-08-21T03:37:03;14.20;99.90
14053;DHT22;7101;51.600;7.310;2022-08-21T03:39:31;14.10;99.90
14053;DHT22;7101;51.600;7.310;2022-08-21T03:41:58;14.10;99.90
14053;DHT22;7101;51.600;7.310;2022-08-21T03:44:25;14.20;99.90
14053;DHT22;7101;51.600;7.310;2022-08-21T03:46:53;14.00;99.90
14053;DHT22;7101;51.600;7.310;2022-08-21T03:49:20;14.00;99.90
14053;DHT22;7101;51.600;7.310;2022-08-21T03:51:47;14.00;99.90
14053;DHT22;7101;51.600;7.310;2022-08-21T03:54:16;14.00;99.90
14053;DHT22;7101;51.600;7.310;2022-08-21T03:56:42;13.90;99.90
14053;DHT22;7101;51.600;7.310;2022-08-21T03:59:09;13.90;99.90
14053;DHT22;7101;51.600;7.310;2022-08-21T04:01:36;13.80;99.90
14053;DHT22;7101;51.600;7.310;2022-08-21T04:04:04;13.70;99.90
14053;DHT22;7101;51.600;7.310;2022-08-21T04:06:32;13.80;99.90
14053;DHT22;7101;51.600;7.310;2022-08-21T04:08:59;13.80;99.90
14053;DHT22;7101;51.600;7.310;2022-08-21T04:11:27;13.70;99.90
14053;DHT22;7101;51.600;7.310;2022-08-21T04:13:54;13.60;99.90
14053;DHT22;7101;51.600;7.310;2022-08-21T04:16:21;13.70;99.90
14053;DHT22;7101;51.600;7.310;2022-08-21T04:18:48;13.70;99.90
14053;DHT22;7101;51.600;7.310;2022-08-21T04:21:14;13.60;99.90
14053;DHT22;7101;51.600;7.310;2022-08-21T04:23:41;13.60;99.90
14053;DHT22;7101;51.600;7.310;2022-08-21T04:26:08;13.60;99.90
14053;DHT22;7101;51.600;7.310;2022-08-21T04:28:36;13.60;99.90
14053;DHT22;7101;51.600;7.310;2022-08-21T04:31:04;13.60;99.90
14053;DHT22;7101;51.600;7.310;2022-08-21T04:33:31;13.60;99.90
14053;DHT22;7101;51.600;7.310;2022-08-21T04:35:58;13.50;99.90
14053;DHT22;7101;51.600;7.310;2022-08-21T04:38:25;13.50;99.90
14053;DHT22;7101;51.600;7.310;2022-08-21T04:40:52;13.50;99.90
14053;DHT22;7101;51.600;7.310;2022-08-21T04:43:19;13.50;99.90
14053;DHT22;7101;51.600;7.310;2022-08-21T04:45:48;13.60;99.90
14053;DHT22;7101;51.600;7.310;2022-08-21T04:48:18;13.60;99.90
14053;DHT22;7101;51.600;7.310;2022-08-21T04:50:49;13.70;99.90
14053;DHT22;7101;51.600;7.310;2022-08-21T04:53:19;13.70;99.90
14053;DHT22;7101;51.600;7.310;2022-08-21T04:55:47;13.80;99.90
14053;DHT22;7101;51.600;7.310;2022-08-21T04:58:17;13.80;99.90
14053;DHT22;7101;51.600;7.310;2022-08-21T05:00:46;13.80;99.90
14053;DHT22;7101;51.600;7.310;2022-08-21T05:03:16;13.80;99.90
14053;DHT22;7101;51.600;7.310;2022-08-21T05:05:44;14.00;99.90
14053;DHT22;7101;51.600;7.310;2022-08-21T05:08:14;14.10;99.90
14053;DHT22;7101;51.600;7.310;2022-08-21T05:10:42;14.10;99.90
14053;DHT22;7101;51.600;7.310;2022-08-21T05:13:10;14.30;99.90
14053;DHT22;7101;51.600;7.310;2022-08-21T05:15:38;14.50;99.90
14053;DHT22;7101;51.600;7.310;2022-08-21T05:18:05;14.60;99.90
14053;DHT22;7101;51.600;7.310;2022-08-21T05:20:34;14.80;99.90
14053;DHT22;7101;51.600;7.310;2022-08-21T05:23:07;14.90;99.90
14053;DHT22;7101;51.600;7.310;2022-08-21T05:25:34;15.00;99.90
14053;DHT22;7101;51.600;7.310;2022-08-21T05:28:01;15.30;99.90
14053;DHT22;7101;51.600;7.310;2022-08-21T05:30:28;15.60;99.90
14053;DHT22;7101;51.600;7.310;2022-08-21T05:32:56;16.20;99.90
14053;DHT22;7101;51.600;7.310;2022-08-21T05:35:23;16.90;99.90
14053;DHT22;7101;51.600;7.310;2022-08-21T05:37:52;17.60;99.90
14053;DHT22;7101;51.600;7.310;2022-08-21T05:40:19;18.00;99.90
14053;DHT22;7101;51.600;7.310;2022-08-21T05:42:46;18.70;99.90
14053;DHT22;7101;51.600;7.310;2022-08-21T05:45:13;19.60;99.90
14053;DHT22;7101;51.600;7.310;2022-08-21T05:47:40;20.90;99.90
14053;DHT22;7101;51.600;7.310;2022-08-21T05:50:07;22.10;99.90
14053;DHT22;7101;51.600;7.310;2022-08-21T05:52:34;22.90;99.90
14053;DHT22;7101;51.600;7.310;2022-08-21T05:55:03;23.70;99.90
14053;DHT22;7101;51.600;7.310;2022-08-21T05:57:30;24.20;99.90
14053;DHT22;7101;51.600;7.310;2022-08-21T05:59:57;24.30;99.90
14053;DHT22;7101;51.600;7.310;2022-08-21T06:02:23;24.40;99.90
14053;DHT22;7101;51.600;7.310;2022-08-21T06:04:50;24.70;99.90
14053;DHT22;7101;51.600;7.310;2022-08-21T06:07:17;24.90;99.90
14053;DHT22;7101;51.600;7.310;2022-08-21T06:09:44;25.50;99.90
14053;DHT22;7101;51.600;7.310;2022-08-21T06:12:12;25.40;99.90
14053;DHT22;7101;51.600;7.310;2022-08-21T06:14:41;25.40;99.90
14053;DHT22;7101;51.600;7.310;2022-08-21T06:17:11;25.60;99.90
14053;DHT22;7101;51.600;7.310;2022-08-21T06:19:39;25.90;99.90
14053;DHT22;7101;51.600;7.310;2022-08-21T06:22:06;26.30;99.90
14053;DHT22;7101;51.600;7.310;2022-08-21T06:24:33;26.30;99.90
14053;DHT22;7101;51.600;7.310;2022-08-21T06:27:04;26.10;99.90
14053;DHT22;7101;51.600;7.310;2022-08-21T06:29:34;26.10;99.90
14053;DHT22;7101;51.600;7.310;2022-08-21T06:32:02;26.20;99.90
14053;DHT22;7101;51.600;7.310;2022-08-21T06:34:29;26.80;99.90
14053;DHT22;7101;51.600;7.310;2022-08-21T06:36:56;27.40;99.90
14053;DHT22;7101;51.600;7.310;2022-08-21T06:39:22;27.40;99.90
14053;DHT22;7101;51.600;7.310;2022-08-21T06:41:49;27.60;99.90
14053;DHT22;7101;51.600;7.310;2022-08-21T06:44:17;27.70;99.90
14053;DHT22;7101;51.600;7.310;2022-08-21T06:46:45;28.30;99.90
14053;DHT22;7101;51.600;7.310;2022-08-21T06:49:12;29.10;97.70
14053;DHT22;7101;51.600;7.310;2022-08-21T06:51:39;28.70;97.70
14053;DHT22;7101;51.600;7.310;2022-08-21T06:54:06;28.50;94.80
14053;DHT22;7101;51.600;7.310;2022-08-21T06:56:34;28.50;94.10
14053;DHT22;7101;51.600;7.310;2022-08-21T06:59:03;28.40;96.20
14053;DHT22;7101;51.600;7.310;2022-08-21T07:01:30;28.30;95.00
14053;DHT22;7101;51.600;7.310;2022-08-21T07:03:58;28.70;95.50
14053;DHT22;7101;51.600;7.310;2022-08-21T07:06:25;28.90;93.30
14053;DHT22;7101;51.600;7.310;2022-08-21T07:08:52;29.20;90.90
14053;DHT22;7101;51.600;7.310;2022-08-21T07:11:21;30.00;88.00
14053;DHT22;7101;51.600;7.310;2022-08-21T07:13:48;29.90;88.30
14053;DHT22;7101;51.600;7.310;2022-08-21T07:16:17;29.40;85.70
14053;DHT22;7101;51.600;7.310;2022-08-21T07:18:44;28.90;87.80
14053;DHT22;7101;51.600;7.310;2022-08-21T07:21:12;28.70;90.30
14053;DHT22;7101;51.600;7.310;2022-08-21T07:23:42;29.00;89.90
14053;DHT22;7101;51.600;7.310;2022-08-21T07:26:10;29.70;86.40
14053;DHT22;7101;51.600;7.310;2022-08-21T07:28:37;29.50;84.80
14053;DHT22;7101;51.600;7.310;2022-08-21T07:31:04;29.30;86.00
14053;DHT22;7101;51.600;7.310;2022-08-21T07:33:33;29.50;88.00
14053;DHT22;7101;51.600;7.310;2022-08-21T07:36:01;29.70;83.20
14053;DHT22;7101;51.600;7.310;2022-08-21T07:38:29;29.30;83.70
14053;DHT22;7101;51.600;7.310;2022-08-21T07:40:57;29.60;84.60
14053;DHT22;7101;51.600;7.310;2022-08-21T07:43:26;30.20;81.70
14053;DHT22;7101;51.600;7.310;2022-08-21T07:45:53;30.30;83.40
14053;DHT22;7101;51.600;7.310;2022-08-21T07:48:20;30.70;79.10
14053;DHT22;7101;51.600;7.310;2022-08-21T07:50:47;30.70;78.60
14053;DHT22;7101;51.600;7.310;2022-08-21T07:53:15;29.90;79.10
14053;DHT22;7101;51.600;7.310;2022-08-21T07:55:44;30.10;78.40
14053;DHT22;7101;51.600;7.310;2022-08-21T07:58:11;29.90;77.20
14053;DHT22;7101;51.600;7.310;2022-08-21T08:00:39;29.90;76.50
14053;DHT22;7101;51.600;7.310;2022-08-21T08:03:06;30.00;71.40
14053;DHT22;7101;51.600;7.310;2022-08-21T08:05:33;30.00;72.80
14053;DHT22;7101;51.600;7.310;2022-08-21T08:08:02;29.70;69.50
14053;DHT22;7101;51.600;7.310;2022-08-21T08:10:29;29.50;69.70
14053;DHT22;7101;51.600;7.310;2022-08-21T08:12:58;29.00;71.40
14053;DHT22;7101;51.600;7.310;2022-08-21T08:15:26;28.70;72.90
14053;DHT22;7101;51.600;7.310;2022-08-21T08:17:54;29.10;72.10
14053;DHT22;7101;51.600;7.310;2022-08-21T08:20:22;29.50;68.80
14053;DHT22;7101;51.600;7.310;2022-08-21T08:22:50;30.10;70.20
14053;DHT22;7101;51.600;7.310;2022-08-21T08:25:18;29.90;65.20
14053;DHT22;7101;51.600;7.310;2022-08-21T08:27:47;30.10;66.20
14053;DHT22;7101;51.600;7.310;2022-08-21T08:30:17;29.70;67.70
14053;DHT22;7101;51.600;7.310;2022-08-21T08:32:45;29.80;66.60
14053;DHT22;7101;51.600;7.310;2022-08-21T08:35:12;29.90;68.60
14053;DHT22;7101;51.600;7.310;2022-08-21T08:37:40;30.30;66.50
14053;DHT22;7101;51.600;7.310;2022-08-21T08:40:11;30.20;66.00
14053;DHT22;7101;51.600;7.310;2022-08-21T08:42:39;29.80;66.50
14053;DHT22;7101;51.600;7.310;2022-08-21T08:45:09;29.80;69.00
14053;DHT22;7101;51.600;7.310;2022-08-21T08:47:40;30.00;66.40
14053;DHT22;7101;51.600;7.310;2022-08-21T08:50:12;30.30;64.70
14053;DHT22;7101;51.600;7.310;2022-08-21T08:52:43;30.00;65.50
14053;DHT22;7101;51.600;7.310;2022-08-21T08:55:15;29.90;66.90
14053;DHT22;7101;51.600;7.310;2022-08-21T08:57:45;29.50;67.70
14053;DHT22;7101;51.600;7.310;2022-08-21T09:00:16;28.90;68.20
14053;DHT22;7101;51.600;7.310;2022-08-21T09:02:46;28.90;69.70
14053;DHT22;7101;51.600;7.310;2022-08-21T09:05:21;28.40;70.70
14053;DHT22;7101;51.600;7.310;2022-08-21T09:07:58;28.20;69.70
14053;DHT22;7101;51.600;7.310;2022-08-21T09:10:38;28.00;74.70
14053;DHT22;7101;51.600;7.310;2022-08-21T09:13:17;28.00;72.60
14053;DHT22;7101;51.600;7.310;2022-08-21T09:15:53;27.90;73.80
14053;DHT22;7101;51.600;7.310;2022-08-21T09:18:36;27.70;74.00
14053;DHT22;7101;51.600;7.310;2022-08-21T09:21:16;27.60;74.90
14053;DHT22;7101;51.600;7.310;2022-08-21T09:23:49;27.90;74.00
14053;DHT22;7101;51.600;7.310;2022-08-21T09:26:24;28.10;74.70
14053;DHT22;7101;51.600;7.310;2022-08-21T09:28:53;28.00;75.10
14053;DHT22;7101;51.600;7.310;2022-08-21T09:31:24;27.90;71.40
14053;DHT22;7101;51.600;7.310;2022-08-21T09:33:59;27.90;72.70
14053;DHT22;7101;51.600;7.310;2022-08-21T09:36:42;28.10;73.40
14053;DHT22;7101;51.600;7.310;2022-08-21T09:39:12;27.70;70.80
14053;DHT22;7101;51.600;7.310;2022-08-21T09:41:40;27.40;73.50
14053;DHT22;7101;51.600;7.310;2022-08-21T09:44:08;27.20;71.90
14053;DHT22;7101;51.600;7.310;2022-08-21T09:46:35;26.70;77.70
14053;DHT22;7101;51.600;7.310;2022-08-21T09:49:04;26.70;76.20
14053;DHT22;7101;51.600;7.310;2022-08-21T09:51:32;26.90;76.70
14053;DHT22;7101;51.600;7.310;2022-08-21T09:54:12;27.00;74.70
14053;DHT22;7101;51.600;7.310;2022-08-21T09:56:52;27.50;73.70
14053;DHT22;7101;51.600;7.310;2022-08-21T09:59:37;27.70;72.60
14053;DHT22;7101;51.600;7.310;2022-08-21T10:02:22;27.40;73.80
14053;DHT22;7101;51.600;7.310;2022-08-21T10:04:55;27.30;73.40
14053;DHT22;7101;51.600;7.310;2022-08-21T10:07:24;27.40;73.00
14053;DHT22;7101;51.600;7.310;2022-08-21T10:10:00;27.50;74.50
14053;DHT22;7101;51.600;7.310;2022-08-21T10:12:33;27.40;72.40
14053;DHT22;7101;51.600;7.310;2022-08-21T10:15:09;27.20;72.30
14053;DHT22;7101;51.600;7.310;2022-08-21T10:17:43;27.20;72.90
14053;DHT22;7101;51.600;7.310;2022-08-21T10:20:19;27.20;73.60
14053;DHT22;7101;51.600;7.310;2022-08-21T10:22:57;27.00;72.40
14053;DHT22;7101;51.600;7.310;2022-08-21T10:25:33;26.60;70.40
14053;DHT22;7101;51.600;7.310;2022-08-21T10:28:07;26.40;71.70
14053;DHT22;7101;51.600;7.310;2022-08-21T10:30:40;26.40;71.30
14053;DHT22;7101;51.600;7.310;2022-08-21T10:33:29;26.40;71.60
14053;DHT22;7101;51.600;7.310;2022-08-21T10:36:05;26.50;72.70
14053;DHT22;7101;51.600;7.310;2022-08-21T10:38:55;26.70;71.80
14053;DHT22;7101;51.600;7.310;2022-08-21T10:41:31;26.40;70.70
14053;DHT22;7101;51.600;7.310;2022-08-21T10:44:11;26.40;71.70
14053;DHT22;7101;51.600;7.310;2022-08-21T10:46:46;26.30;71.10
14053;DHT22;7101;51.600;7.310;2022-08-21T10:49:22;26.30;71.90
14053;DHT22;7101;51.600;7.310;2022-08-21T10:52:02;26.30;70.20
14053;DHT22;7101;51.600;7.310;2022-08-21T10:54:41;26.20;72.10
14053;DHT22;7101;51.600;7.310;2022-08-21T10:57:16;26.20;71.70
14053;DHT22;7101;51.600;7.310;2022-08-21T10:59:49;26.30;71.50
14053;DHT22;7101;51.600;7.310;2022-08-21T11:02:22;26.60;72.70
14053;DHT22;7101;51.600;7.310;2022-08-21T11:04:54;26.70;68.80
14053;DHT22;7101;51.600;7.310;2022-08-21T11:07:28;26.60;70.30
14053;DHT22;7101;51.600;7.310;2022-08-21T11:10:02;26.60;69.00
14053;DHT22;7101;51.600;7.310;2022-08-21T11:12:35;26.30;71.00
14053;DHT22;7101;51.600;7.310;2022-08-21T11:15:17;26.40;69.10
14053;DHT22;7101;51.600;7.310;2022-08-21T11:17:50;26.50;70.90
14053;DHT22;7101;51.600;7.310;2022-08-21T11:20:26;26.70;70.00
14053;DHT22;7101;51.600;7.310;2022-08-21T11:23:00;26.90;69.20
14053;DHT22;7101;51.600;7.310;2022-08-21T11:25:34;26.90;68.40
14053;DHT22;7101;51.600;7.310;2022-08-21T11:28:05;26.70;69.80
14053;DHT22;7101;51.600;7.310;2022-08-21T11:30:44;26.70;69.10
14053;DHT22;7101;51.600;7.310;2022-08-21T11:33:28;26.50;69.20
14053;DHT22;7101;51.600;7.310;2022-08-21T11:36:02;26.50;69.20
14053;DHT22;7101;51.600;7.310;2022-08-21T11:38:38;26.70;68.50
14053;DHT22;7101;51.600;7.310;2022-08-21T11:41:21;26.90;70.60
14053;DHT22;7101;51.600;7.310;2022-08-21T11:43:54;26.90;67.70
14053;DHT22;7101;51.600;7.310;2022-08-21T11:46:29;26.70;69.80
14053;DHT22;7101;51.600;7.310;2022-08-21T11:49:11;26.60;69.90
14053;DHT22;7101;51.600;7.310;2022-08-21T11:51:53;26.50;69.30
14053;DHT22;7101;51.600;7.310;2022-08-21T11:54:27;26.40;68.50
14053;DHT22;7101;51.600;7.310;2022-08-21T11:56:59;26.40;68.90
14053;DHT22;7101;51.600;7.310;2022-08-21T11:59:32;26.30;67.40
14053;DHT22;7101;51.600;7.310;2022-08-21T12:02:05;26.10;69.80
14053;DHT22;7101;51.600;7.310;2022-08-21T12:04:43;26.30;72.00
14053;DHT22;7101;51.600;7.310;2022-08-21T12:07:12;26.50;72.10
14053;DHT22;7101;51.600;7.310;2022-08-21T12:09:52;26.40;70.70
14053;DHT22;7101;51.600;7.310;2022-08-21T12:12:25;26.20;69.50
14053;DHT22;7101;51.600;7.310;2022-08-21T12:15:11;25.90;71.20
14053;DHT22;7101;51.600;7.310;2022-08-21T12:17:40;26.10;70.10
14053;DHT22;7101;51.600;7.310;2022-08-21T12:20:35;26.30;72.20
14053;DHT22;7101;51.600;7.310;2022-08-21T12:23:05;26.40;69.60
14053;DHT22;7101;51.600;7.310;2022-08-21T12:25:41;26.40;70.40
14053;DHT22;7101;51.600;7.310;2022-08-21T12:28:10;26.40;70.90
14053;DHT22;7101;51.600;7.310;2022-08-21T12:30:39;26.60;70.50
14053;DHT22;7101;51.600;7.310;2022-08-21T12:33:20;26.80;70.00
14053;DHT22;7101;51.600;7.310;2022-08-21T12:35:49;27.10;69.00
14053;DHT22;7101;51.600;7.310;2022-08-21T12:38:21;27.00;66.70
14053;DHT22;7101;51.600;7.310;2022-08-21T12:40:53;27.10;70.00
14053;DHT22;7101;51.600;7.310;2022-08-21T12:43:25;27.30;64.10
14053;DHT22;7101;51.600;7.310;2022-08-21T12:45:54;27.20;64.80
14053;DHT22;7101;51.600;7.310;2022-08-21T12:48:26;27.20;65.00
14053;DHT22;7101;51.600;7.310;2022-08-21T12:50:55;26.80;65.70
14053;DHT22;7101;51.600;7.310;2022-08-21T12:53:28;26.80;68.00
14053;DHT22;7101;51.600;7.310;2022-08-21T12:55:57;27.00;66.70
14053;DHT22;7101;51.600;7.310;2022-08-21T12:58:30;27.00;67.00
14053;DHT22;7101;51.600;7.310;2022-08-21T13:01:05;27.30;66.50
14053;DHT22;7101;51.600;7.310;2022-08-21T13:03:36;27.30;67.20
14053;DHT22;7101;51.600;7.310;2022-08-21T13:06:04;27.10;65.70
14053;DHT22;7101;51.600;7.310;2022-08-21T13:08:34;26.60;65.40
14053;DHT22;7101;51.600;7.310;2022-08-21T13:11:05;26.60;68.30
14053;DHT22;7101;51.600;7.310;2022-08-21T13:13:33;26.60;66.80
14053;DHT22;7101;51.600;7.310;2022-08-21T13:16:03;26.60;65.00
14053;DHT22;7101;51.600;7.310;2022-08-21T13:18:32;26.60;64.70
14053;DHT22;7101;51.600;7.310;2022-08-21T13:21:05;26.90;65.10
14053;DHT22;7101;51.600;7.310;2022-08-21T13:23:33;27.00;65.20
14053;DHT22;7101;51.600;7.310;2022-08-21T13:26:00;27.30;64.50
14053;DHT22;7101;51.600;7.310;2022-08-21T13:28:34;27.30;65.10
14053;DHT22;7101;51.600;7.310;2022-08-21T13:31:07;27.40;63.80
14053;DHT22;7101;51.600;7.310;2022-08-21T13:33:34;27.30;64.80
14053;DHT22;7101;51.600;7.310;2022-08-21T13:36:05;27.40;64.50
14053;DHT22;7101;51.600;7.310;2022-08-21T13:38:36;27.40;63.90
14053;DHT22;7101;51.600;7.310;2022-08-21T13:41:06;26.70;65.40
14053;DHT22;7101;51.600;7.310;2022-08-21T13:43:36;26.50;67.00
14053;DHT22;7101;51.600;7.310;2022-08-21T13:46:09;26.40;66.90
14053;DHT22;7101;51.600;7.310;2022-08-21T13:48:36;26.60;66.30
14053;DHT22;7101;51.600;7.310;2022-08-21T13:51:04;26.70;65.30
14053;DHT22;7101;51.600;7.310;2022-08-21T13:53:34;26.70;65.70
14053;DHT22;7101;51.600;7.310;2022-08-21T13:56:04;26.70;65.30
14053;DHT22;7101;51.600;7.310;2022-08-21T13:58:33;26.70;65.90
14053;DHT22;7101;51.600;7.310;2022-08-21T14:01:01;26.80;65.10
14053;DHT22;7101;51.600;7.310;2022-08-21T14:03:36;27.00;65.50
14053;DHT22;7101;51.600;7.310;2022-08-21T14:06:11;27.10;65.30
14053;DHT22;7101;51.600;7.310;2022-08-21T14:08:39;27.20;65.10
14053;DHT22;7101;51.600;7.310;2022-08-21T14:11:11;26.90;64.70
14053;DHT22;7101;51.600;7.310;2022-08-21T14:13:41;26.80;65.10
14053;DHT22;7101;51.600;7.310;2022-08-21T14:16:15;26.40;66.50
14053;DHT22;7101;51.600;7.310;2022-08-21T14:18:44;26.20;66.70
14053;DHT22;7101;51.600;7.310;2022-08-21T14:21:11;26.00;67.60
14053;DHT22;7101;51.600;7.310;2022-08-21T14:23:39;26.20;68.10
14053;DHT22;7101;51.600;7.310;2022-08-21T14:26:07;26.60;69.10
14053;DHT22;7101;51.600;7.310;2022-08-21T14:28:39;27.00;66.00
14053;DHT22;7101;51.600;7.310;2022-08-21T14:31:17;27.20;65.90
14053;DHT22;7101;51.600;7.310;2022-08-21T14:33:44;27.10;65.50
14053;DHT22;7101;51.600;7.310;2022-08-21T14:36:11;26.90;66.40
14053;DHT22;7101;51.600;7.310;2022-08-21T14:38:40;26.60;65.50
14053;DHT22;7101;51.600;7.310;2022-08-21T14:41:14;26.30;66.10
14053;DHT22;7101;51.600;7.310;2022-08-21T14:43:42;25.90;67.80
14053;DHT22;7101;51.600;7.310;2022-08-21T14:46:10;25.60;68.70
14053;DHT22;7101;51.600;7.310;2022-08-21T14:48:38;25.50;69.40
14053;DHT22;7101;51.600;7.310;2022-08-21T14:51:05;25.40;69.80
14053;DHT22;7101;51.600;7.310;2022-08-21T14:53:32;25.50;69.90
14053;DHT22;7101;51.600;7.310;2022-08-21T14:55:59;25.30;69.80
14053;DHT22;7101;51.600;7.310;2022-08-21T14:58:33;25.30;70.50
14053;DHT22;7101;51.600;7.310;2022-08-21T15:01:01;25.40;70.30
14053;DHT22;7101;51.600;7.310;2022-08-21T15:03:29;25.50;70.70
14053;DHT22;7101;51.600;7.310;2022-08-21T15:05:58;25.60;69.60
14053;DHT22;7101;51.600;7.310;2022-08-21T15:08:25;25.80;69.50
14053;DHT22;7101;51.600;7.310;2022-08-21T15:10:52;25.90;69.00
14053;DHT22;7101;51.600;7.310;2022-08-21T15:13:19;26.00;70.20
14053;DHT22;7101;51.600;7.310;2022-08-21T15:15:48;26.20;68.20
14053;DHT22;7101;51.600;7.310;2022-08-21T15:18:16;26.30;68.70
14053;DHT22;7101;51.600;7.310;2022-08-21T15:20:43;26.30;69.20
14053;DHT22;7101;51.600;7.310;2022-08-21T15:23:11;26.40;67.10
14053;DHT22;7101;51.600;7.310;2022-08-21T15:25:40;26.40;68.30
14053;DHT22;7101;51.600;7.310;2022-08-21T15:28:07;26.60;67.40
14053;DHT22;7101;51.600;7.310;2022-08-21T15:30:35;27.00;67.40
14053;DHT22;7101;51.600;7.310;2022-08-21T15:33:03;27.50;68.00
14053;DHT22;7101;51.600;7.310;2022-08-21T15:35:30;27.50;65.60
14053;DHT22;7101;51.600;7.310;2022-08-21T15:37:58;27.30;67.30
14053;DHT22;7101;51.600;7.310;2022-08-21T15:40:26;27.30;66.90
14053;DHT22;7101;51.600;7.310;2022-08-21T15:42:59;27.00;66.60
14053;DHT22;7101;51.600;7.310;2022-08-21T15:45:27;27.30;66.70
14053;DHT22;7101;51.600;7.310;2022-08-21T15:47:55;27.20;66.20
14053;DHT22;7101;51.600;7.310;2022-08-21T15:50:22;27.40;65.90
14053;DHT22;7101;51.600;7.310;2022-08-21T15:52:50;27.10;65.50
14053;DHT22;7101;51.600;7.310;2022-08-21T15:55:17;27.00;67.80
14053;DHT22;7101;51.600;7.310;2022-08-21T15:57:47;26.70;67.40
14053;DHT22;7101;51.600;7.310;2022-08-21T16:00:17;26.60;66.80